createdAt,value
2023-04-15T00:00:58.559Z,25.55
2023-04-15T00:03:28.777Z,26.02
2023-04-15T00:05:55.543Z,27.98
2023-04-15T00:08:22.217Z,29.13
2023-04-15T00:10:49.406Z,27.55
2023-04-15T00:13:16.718Z,28.00
2023-04-15T00:15:43.459Z,28.55
2023-04-15T00:20:37.475Z,28.13
2023-04-15T00:23:04.493Z,25.17
2023-04-15T00:25:31.624Z,27.77
2023-04-15T00:27:58.500Z,27.65
2023-04-15T00:30:25.800Z,28.73
2023-04-15T00:32:52.870Z,28.60
2023-04-15T00:35:19.567Z,27.20
2023-04-15T00:37:46.552Z,28.67
2023-04-15T00:40:14.168Z,28.95
2023-04-15T00:42:41.283Z,31.25
2023-04-15T00:45:09.089Z,29.13
2023-04-15T00:47:37.750Z,29.58
2023-04-15T00:50:05.165Z,29.20
2023-04-15T00:52:32.670Z,31.08
2023-04-15T00:55:06.749Z,28.83
2023-04-15T00:57:36.906Z,27.77
2023-04-15T01:00:05.883Z,29.38
2023-04-15T01:02:33.528Z,30.80
2023-04-15T01:05:00.687Z,30.73
2023-04-15T01:07:27.316Z,27.52
2023-04-15T01:09:54.197Z,30.85
2023-04-15T01:12:21.289Z,29.88
2023-04-15T01:14:48.648Z,32.03
2023-04-15T01:17:15.363Z,31.48
2023-04-15T01:19:42.482Z,31.73
2023-04-15T01:22:11.756Z,34.53
2023-04-15T01:24:40.194Z,32.35
2023-04-15T01:27:07.193Z,34.15
2023-04-15T01:29:38.574Z,32.97
2023-04-15T01:32:05.972Z,33.33
2023-04-15T01:34:41.671Z,34.22
2023-04-15T01:51:09.261Z,36.13
2023-04-15T01:53:45.903Z,37.30
2023-04-15T01:56:16.813Z,36.97
2023-04-15T01:58:43.746Z,36.85
2023-04-15T02:03:40.032Z,38.60
2023-04-15T02:06:07.882Z,36.50
2023-04-15T02:08:42.726Z,37.28
2023-04-15T02:11:09.587Z,35.70
2023-04-15T02:13:37.464Z,34.53
2023-04-15T02:16:05.076Z,37.58
2023-04-15T02:18:33.949Z,36.53
2023-04-15T02:21:01.132Z,35.00
2023-04-15T02:23:28.319Z,36.03
2023-04-15T02:26:00.909Z,34.03
2023-04-15T02:28:29.312Z,36.03
2023-04-15T02:30:59.610Z,34.33
2023-04-15T02:33:29.457Z,35.53
2023-04-15T02:35:56.315Z,34.80
2023-04-15T02:38:24.392Z,35.42
2023-04-15T02:40:51.738Z,34.30
2023-04-15T02:43:18.506Z,35.25
2023-04-15T02:48:15.646Z,32.83
2023-04-15T02:50:42.896Z,33.03
2023-04-15T02:53:10.521Z,35.33
2023-04-15T02:55:37.244Z,34.78
2023-04-15T03:00:37.132Z,31.80
2023-04-15T03:03:07.605Z,34.28
2023-04-15T03:05:34.751Z,33.25
2023-04-15T03:08:06.499Z,32.95
2023-04-15T03:10:33.643Z,33.08
2023-04-15T03:13:07.155Z,33.20
2023-04-15T03:15:34.840Z,33.50
2023-04-15T03:18:08.504Z,34.30
2023-04-15T03:20:39.052Z,31.50
2023-04-15T03:23:17.683Z,33.30
2023-04-15T03:26:03.418Z,33.45
2023-04-15T03:31:16.201Z,32.95
2023-04-15T03:33:49.764Z,34.38
2023-04-15T03:36:21.192Z,34.55
2023-04-15T03:38:52.021Z,31.50
2023-04-15T03:41:19.361Z,28.92
2023-04-15T03:43:47.877Z,34.63
2023-04-15T03:46:20.413Z,32.95
2023-04-15T03:48:48.547Z,33.13
2023-04-15T03:51:18.431Z,32.97
2023-04-15T03:53:47.367Z,31.00
2023-04-15T03:56:20.839Z,31.20
2023-04-15T03:58:48.263Z,30.40
2023-04-15T04:01:16.632Z,32.78
2023-04-15T04:03:43.615Z,32.05
2023-04-15T04:06:18.718Z,31.17
2023-04-15T04:08:46.953Z,30.30
2023-04-15T04:11:14.102Z,31.00
2023-04-15T04:13:42.635Z,32.63
2023-04-15T04:16:10.426Z,31.08
2023-04-15T04:18:38.070Z,29.92
2023-04-15T04:21:04.912Z,29.75
2023-04-15T04:25:58.733Z,29.45
2023-04-15T04:28:36.474Z,31.05
2023-04-15T04:31:05.526Z,32.67
2023-04-15T04:33:37.268Z,29.90
2023-04-15T04:36:08.007Z,30.13
2023-04-15T04:38:43.746Z,30.30
2023-04-15T04:41:12.775Z,31.15
2023-04-15T04:43:39.779Z,31.65
2023-04-15T04:46:09.003Z,31.17
2023-04-15T04:48:36.368Z,30.85
2023-04-15T04:51:06.653Z,30.52
2023-04-15T04:53:33.907Z,29.65
2023-04-15T04:56:05.351Z,30.33
2023-04-15T04:58:35.878Z,29.30
2023-04-15T05:01:03.590Z,29.50
2023-04-15T05:03:30.488Z,30.10
2023-04-15T05:05:59.868Z,27.45
2023-04-15T05:08:33.208Z,30.25
2023-04-15T05:11:00.330Z,29.42
2023-04-15T05:13:27.216Z,28.83
2023-04-15T05:15:55.063Z,29.20
2023-04-15T05:18:21.975Z,28.15
2023-04-15T05:23:18.165Z,27.73
2023-04-15T05:25:45.439Z,27.83
2023-04-15T05:28:15.622Z,27.70
2023-04-15T05:30:42.449Z,27.00
2023-04-15T05:35:37.074Z,27.13
2023-04-15T05:38:03.811Z,25.65
2023-04-15T05:42:57.794Z,26.10
2023-04-15T05:45:24.407Z,25.17
2023-04-15T05:47:55.212Z,25.33
2023-04-15T05:50:22.382Z,23.08
2023-04-15T05:52:49.583Z,24.42
2023-04-15T05:55:16.711Z,23.90
2023-04-15T05:57:43.466Z,24.42
2023-04-15T06:02:37.385Z,22.10
2023-04-15T06:05:04.589Z,22.83
2023-04-15T06:07:31.304Z,21.88
2023-04-15T06:10:00.946Z,22.30
2023-04-15T06:12:28.811Z,20.10
2023-04-15T06:14:55.526Z,20.25
2023-04-15T06:19:51.105Z,19.48
2023-04-15T06:22:17.669Z,20.65
2023-04-15T06:24:45.368Z,18.00
2023-04-15T06:27:13.434Z,17.48
2023-04-15T06:29:40.467Z,17.67
2023-04-15T06:32:07.247Z,15.30
2023-04-15T06:37:01.464Z,15.55
2023-04-15T06:39:28.242Z,15.32
2023-04-15T06:44:22.155Z,15.40
2023-04-15T06:46:51.834Z,14.73
2023-04-15T06:49:21.040Z,15.43
2023-04-15T06:51:47.892Z,15.23
2023-04-15T06:54:14.568Z,13.85
2023-04-15T06:56:43.819Z,13.88
2023-04-15T06:59:11.085Z,13.68
2023-04-15T07:01:37.963Z,13.13
2023-04-15T07:04:04.848Z,12.35
2023-04-15T07:06:32.840Z,13.48
2023-04-15T07:09:03.788Z,12.05
2023-04-15T07:11:30.988Z,13.38
2023-04-15T07:14:04.274Z,12.85
2023-04-15T07:16:31.356Z,13.23
2023-04-15T07:19:00.664Z,12.55
2023-04-15T07:21:27.980Z,12.50
2023-04-15T07:23:55.009Z,11.88
2023-04-15T07:26:27.821Z,12.48
2023-04-15T07:28:55.946Z,13.45
2023-04-15T07:31:22.870Z,13.57
2023-04-15T07:33:49.806Z,13.80
2023-04-15T07:36:16.916Z,13.13
2023-04-15T07:38:47.316Z,13.50
2023-04-15T07:41:14.444Z,13.90
2023-04-15T07:43:43.790Z,13.23
2023-04-15T07:46:14.761Z,14.43
2023-04-15T07:48:41.975Z,14.68
2023-04-15T07:51:08.794Z,14.57
2023-04-15T07:56:02.170Z,14.52
2023-04-15T07:58:28.808Z,14.70
2023-04-15T08:00:55.566Z,15.52
2023-04-15T08:05:50.764Z,14.05
2023-04-15T08:08:25.583Z,13.18
2023-04-15T08:10:53.517Z,13.98
2023-04-15T08:13:23.463Z,13.30
2023-04-15T08:16:23.806Z,13.68
2023-04-15T08:18:52.328Z,14.80
2023-04-15T08:21:20.519Z,14.90
2023-04-15T08:23:50.374Z,15.02
2023-04-15T08:26:17.808Z,13.75
2023-04-15T08:28:46.153Z,16.60
2023-04-15T08:31:26.791Z,14.00
2023-04-15T08:34:07.819Z,14.02
2023-04-15T08:36:51.074Z,14.82
2023-04-15T08:39:25.808Z,14.88
2023-04-15T08:42:09.799Z,15.95
2023-04-15T08:47:56.180Z,14.30
2023-04-15T08:50:31.734Z,15.40
2023-04-15T08:53:10.621Z,14.40
2023-04-15T08:55:51.567Z,15.70
2023-04-15T08:58:21.221Z,14.23
2023-04-15T09:00:57.782Z,14.93
2023-04-15T09:03:25.070Z,13.45
2023-04-15T09:05:53.277Z,13.85
2023-04-15T09:08:19.933Z,14.02
2023-04-15T09:10:48.715Z,12.98
2023-04-15T09:13:31.129Z,14.73
2023-04-15T09:16:17.243Z,14.65
2023-04-15T09:18:47.839Z,14.50
2023-04-15T09:21:35.959Z,14.77
2023-04-15T09:24:07.718Z,14.30
2023-04-15T09:26:45.558Z,14.18
2023-04-15T09:29:16.318Z,14.60
2023-04-15T09:31:44.639Z,14.15
2023-04-15T09:34:11.791Z,14.20
2023-04-15T09:36:51.132Z,14.35
2023-04-15T09:39:21.828Z,14.60
2023-04-15T09:42:07.424Z,14.13
2023-04-15T09:44:34.492Z,14.27
2023-04-15T09:47:06.448Z,14.57
2023-04-15T09:49:37.237Z,13.00
2023-04-15T09:52:12.392Z,15.23
2023-04-15T09:54:58.917Z,13.45
2023-04-15T09:58:40.804Z,14.70
2023-04-15T10:08:03.865Z,14.25
2023-04-15T10:10:46.921Z,14.13
2023-04-15T10:14:25.936Z,13.68
2023-04-15T10:17:03.550Z,14.90
2023-04-15T10:19:43.104Z,15.45
2023-04-15T10:22:24.297Z,14.52
2023-04-15T10:24:59.232Z,14.40
2023-04-15T10:27:28.039Z,16.20
2023-04-15T10:30:01.136Z,15.60
2023-04-15T10:32:31.522Z,14.60
2023-04-15T10:35:06.213Z,16.00
2023-04-15T10:37:48.558Z,15.77
2023-04-15T10:40:54.396Z,14.70
2023-04-15T10:43:33.698Z,16.42
2023-04-15T10:46:28.723Z,16.67
2023-04-15T10:49:37.141Z,16.15
2023-04-15T10:52:15.334Z,16.33
2023-04-15T10:55:38.584Z,15.95
2023-04-15T10:58:21.394Z,15.80
2023-04-15T11:04:58.859Z,15.95
2023-04-15T11:08:09.526Z,15.18
2023-04-15T11:10:50.957Z,15.27
2023-04-15T11:13:36.179Z,14.95
2023-04-15T11:17:02.616Z,14.70
2023-04-15T11:19:59.052Z,16.02
2023-04-15T11:22:37.062Z,14.80
2023-04-15T11:25:15.157Z,14.75
2023-04-15T11:31:15.308Z,14.57
2023-04-15T11:41:49.575Z,14.90
2023-04-15T12:05:02.901Z,13.10
2023-04-15T12:07:59.766Z,13.60
2023-04-15T12:11:12.376Z,12.95
2023-04-15T12:13:54.195Z,13.45
2023-04-15T12:16:30.208Z,13.02
2023-04-15T12:19:43.296Z,13.57
2023-04-15T12:22:31.951Z,13.15
2023-04-15T12:25:01.852Z,12.35
2023-04-15T12:28:16.034Z,12.88
2023-04-15T12:31:05.914Z,13.23
2023-04-15T12:33:36.359Z,13.32
2023-04-15T12:36:10.187Z,13.57
2023-04-15T12:38:37.629Z,14.63
2023-04-15T12:41:04.903Z,14.07
2023-04-15T12:46:41.678Z,13.63
2023-04-15T12:49:14.189Z,13.07
2023-04-15T12:51:41.337Z,13.23
2023-04-15T12:54:12.062Z,12.82
2023-04-15T12:56:40.077Z,14.25
2023-04-15T12:59:10.518Z,14.38
2023-04-15T13:01:40.826Z,14.43
2023-04-15T13:04:08.706Z,15.02
2023-04-15T13:06:36.380Z,14.93
2023-04-15T13:09:14.404Z,13.60
2023-04-15T13:11:54.378Z,15.13
2023-04-15T13:14:22.277Z,14.27
2023-04-15T13:16:49.651Z,14.48
2023-04-15T13:19:20.003Z,15.35
2023-04-15T13:21:51.574Z,15.95
2023-04-15T13:24:20.041Z,15.38
2023-04-15T13:26:55.565Z,15.63
2023-04-15T13:29:32.130Z,15.88
2023-04-15T13:32:03.432Z,15.75
2023-04-15T13:34:30.890Z,16.48
2023-04-15T13:37:11.638Z,14.95
2023-04-15T13:39:41.998Z,15.77
2023-04-15T13:42:12.842Z,16.77
2023-04-15T13:44:40.319Z,16.25
2023-04-15T13:47:14.016Z,16.30
2023-04-15T13:49:43.769Z,15.60
2023-04-15T13:52:15.527Z,15.40
2023-04-15T13:54:42.642Z,15.23
2023-04-15T13:57:09.619Z,14.88
2023-04-15T13:59:36.944Z,14.77
2023-04-15T14:02:04.330Z,15.07
2023-04-15T14:04:32.383Z,13.98
2023-04-15T14:09:48.741Z,13.30
2023-04-15T14:12:21.976Z,13.43
2023-04-15T14:14:49.087Z,14.43
2023-04-15T14:17:16.442Z,14.65
2023-04-15T14:19:48.127Z,14.75
2023-04-15T14:22:16.290Z,13.77
2023-04-15T14:24:45.833Z,13.50
2023-04-15T14:27:12.970Z,13.27
2023-04-15T14:29:40.046Z,13.80
2023-04-15T14:32:12.034Z,13.88
2023-04-15T14:34:44.980Z,14.20
2023-04-15T14:37:11.792Z,13.35
2023-04-15T14:42:06.768Z,13.30
2023-04-15T14:44:33.951Z,13.88
2023-04-15T14:47:05.862Z,13.82
2023-04-15T14:49:41.612Z,13.85
2023-04-15T14:52:12.490Z,13.63
2023-04-15T14:54:39.275Z,15.25
2023-04-15T14:59:38.036Z,15.30
2023-04-15T15:02:06.280Z,16.00
2023-04-15T15:04:33.625Z,16.55
2023-04-15T15:07:02.783Z,16.05
2023-04-15T15:09:35.313Z,15.52
2023-04-15T15:12:09.279Z,15.93
2023-04-15T15:14:41.330Z,14.55
2023-04-15T15:17:10.303Z,12.90
2023-04-15T15:19:40.585Z,13.85
2023-04-15T15:22:09.038Z,14.30
2023-04-15T15:24:35.580Z,15.98
2023-04-15T15:27:02.906Z,15.43
2023-04-15T15:29:29.542Z,14.77
2023-04-15T15:31:56.607Z,15.13
2023-04-15T15:34:23.186Z,15.23
2023-04-15T15:36:49.715Z,15.80
2023-04-15T15:39:16.406Z,16.73
2023-04-15T15:44:09.831Z,16.20
2023-04-15T15:46:36.603Z,16.70
2023-04-15T15:51:32.219Z,16.58
2023-04-15T15:53:58.778Z,18.02
2023-04-15T15:56:28.756Z,18.13
2023-04-15T15:58:55.659Z,16.38
2023-04-15T16:01:24.195Z,17.67
2023-04-15T16:03:55.212Z,16.08
2023-04-15T16:06:24.549Z,15.75
2023-04-15T16:08:51.317Z,16.38
2023-04-15T16:13:44.532Z,14.52
2023-04-15T16:16:11.919Z,14.82
2023-04-15T16:18:44.991Z,14.68
2023-04-15T16:21:12.491Z,15.18
2023-04-15T16:23:41.176Z,13.65
2023-04-15T16:26:08.513Z,14.95
2023-04-15T16:28:38.093Z,14.10
2023-04-15T16:31:05.016Z,15.40
2023-04-15T16:33:32.703Z,14.07
2023-04-15T16:36:02.620Z,14.68
2023-04-15T16:38:29.201Z,14.02
2023-04-15T16:41:00.589Z,14.68
2023-04-15T16:43:33.225Z,14.70
2023-04-15T16:46:00.232Z,13.40
2023-04-15T16:50:55.242Z,12.77
2023-04-15T16:53:25.283Z,14.30
2023-04-15T16:55:52.319Z,13.57
2023-04-15T16:58:19.248Z,14.18
2023-04-15T17:00:46.876Z,13.52
2023-04-15T17:03:13.609Z,13.27
2023-04-15T17:05:42.593Z,13.88
2023-04-15T17:08:09.494Z,12.82
2023-04-15T17:10:36.370Z,13.10
2023-04-15T17:15:31.506Z,13.68
2023-04-15T17:18:00.665Z,14.50
2023-04-15T17:20:27.737Z,14.80
2023-04-15T17:23:02.176Z,14.45
2023-04-15T17:25:48.819Z,14.43
2023-04-15T17:28:41.045Z,12.77
2023-04-15T17:31:21.750Z,13.75
2023-04-15T17:34:00.054Z,13.60
2023-04-15T17:36:35.779Z,14.90
2023-04-15T17:39:07.858Z,15.13
2023-04-15T17:41:34.600Z,14.63
2023-04-15T17:44:01.366Z,14.63
2023-04-15T17:48:54.686Z,14.25
2023-04-15T17:51:21.844Z,15.63
2023-04-15T17:53:48.826Z,14.95
2023-04-15T17:56:15.929Z,15.77
2023-04-15T17:58:43.710Z,15.60
2023-04-15T18:01:13.697Z,15.63
2023-04-15T18:04:09.057Z,15.25
2023-04-15T18:06:36.422Z,16.05
2023-04-15T18:09:07.316Z,16.85
2023-04-15T18:11:34.009Z,17.75
2023-04-15T18:14:03.235Z,17.80
2023-04-15T18:16:30.294Z,18.10
2023-04-15T18:18:57.265Z,17.35
2023-04-15T18:21:24.075Z,18.17
2023-04-15T18:26:18.267Z,18.50
2023-04-15T18:28:44.840Z,19.50
2023-04-15T18:31:14.548Z,17.67
2023-04-15T18:33:41.151Z,20.02
2023-04-15T18:36:10.571Z,19.10
2023-04-15T18:38:37.313Z,18.63
2023-04-15T18:43:49.490Z,19.55
2023-04-15T18:46:27.739Z,19.35
2023-04-15T18:48:57.211Z,19.38
2023-04-15T18:55:29.618Z,18.38
2023-04-15T18:59:26.114Z,18.27
2023-04-15T19:01:40.801Z,19.95
2023-04-15T19:04:14.095Z,20.20
2023-04-15T19:07:14.047Z,19.33
2023-04-15T19:09:53.372Z,20.23
2023-04-15T19:15:34.851Z,23.00
2023-04-15T19:18:01.928Z,23.23
2023-04-15T19:20:31.589Z,22.20
2023-04-15T19:23:02.976Z,23.38
2023-04-15T19:25:40.771Z,23.17
2023-04-15T19:28:24.676Z,23.08
2023-04-15T19:33:37.251Z,22.15
2023-04-15T19:38:40.109Z,22.52
2023-04-15T19:41:11.201Z,24.05
2023-04-15T19:43:49.306Z,23.77
2023-04-15T19:46:24.800Z,25.15
2023-04-15T19:49:09.196Z,24.25
2023-04-15T19:51:36.201Z,25.80
2023-04-15T19:54:06.166Z,27.05
2023-04-15T19:56:35.361Z,26.42
2023-04-15T19:59:05.741Z,25.05
2023-04-15T20:01:58.761Z,27.08
2023-04-15T20:05:06.873Z,26.48
2023-04-15T20:08:43.136Z,25.55
2023-04-15T20:13:59.393Z,25.23
2023-04-15T20:16:41.780Z,24.88
2023-04-15T20:19:13.443Z,24.17
2023-04-15T20:21:43.089Z,23.70
2023-04-15T20:24:43.436Z,23.88
2023-04-15T20:36:02.941Z,25.42
2023-04-15T20:58:23.120Z,24.77
2023-04-15T21:17:08.626Z,24.77
2023-04-15T21:19:54.760Z,23.00
2023-04-15T21:23:07.382Z,24.98
2023-04-15T21:33:56.386Z,22.15
2023-04-15T21:39:45.801Z,23.30
2023-04-15T21:42:19.011Z,24.17
2023-04-15T21:44:52.964Z,23.38
2023-04-15T21:50:30.425Z,24.27
2023-04-15T21:52:58.028Z,24.52
2023-04-15T21:56:11.378Z,24.58
2023-04-15T21:58:42.020Z,24.15
2023-04-15T22:01:19.338Z,25.48
2023-04-15T22:06:21.444Z,25.95
2023-04-15T22:08:56.927Z,24.77
2023-04-15T22:19:46.765Z,28.77
2023-04-15T22:22:18.251Z,26.38
2023-04-15T22:31:54.927Z,27.75
2023-04-15T22:34:23.711Z,29.73
2023-04-15T22:36:56.102Z,29.23
2023-04-15T22:39:26.383Z,30.45
2023-04-15T22:41:53.586Z,28.70
2023-04-15T22:44:20.698Z,28.85
2023-04-15T22:46:48.560Z,28.05
2023-04-15T22:49:16.918Z,29.75
2023-04-15T22:51:44.566Z,28.90
2023-04-15T22:54:26.022Z,29.73
2023-04-15T22:56:56.143Z,27.98
2023-04-15T22:59:23.178Z,26.33
2023-04-15T23:01:52.344Z,27.40
2023-04-15T23:04:23.108Z,27.38
2023-04-15T23:06:53.540Z,26.80
2023-04-15T23:09:22.800Z,26.33
2023-04-15T23:11:52.748Z,27.63
2023-04-15T23:14:19.652Z,27.15
2023-04-15T23:16:46.829Z,26.65
2023-04-15T23:19:14.531Z,27.88
2023-04-15T23:22:15.958Z,27.45
2023-04-15T23:24:44.592Z,28.45
2023-04-15T23:27:12.046Z,28.67
2023-04-15T23:29:39.410Z,26.48
2023-04-15T23:32:06.935Z,26.35
2023-04-15T23:34:34.083Z,27.35
2023-04-15T23:37:01.156Z,27.60
2023-04-15T23:39:28.061Z,27.02
2023-04-15T23:41:55.038Z,25.30
2023-04-15T23:44:21.835Z,26.20
2023-04-15T23:49:15.601Z,24.90
2023-04-15T23:51:42.137Z,24.90
2023-04-15T23:54:08.713Z,23.42
2023-04-15T23:56:35.343Z,24.25
2023-04-15T23:59:01.861Z,25.77
